createdAt,value
2018-09-15T00:01:54.512Z,15.70
2018-09-15T00:04:22.242Z,15.70
2018-09-15T00:06:49.899Z,15.70
2018-09-15T00:09:17.528Z,15.60
2018-09-15T00:11:45.190Z,15.60
2018-09-15T00:14:12.871Z,15.60
2018-09-15T00:16:40.602Z,15.50
2018-09-15T00:19:08.268Z,15.40
2018-09-15T00:21:35.940Z,15.40
2018-09-15T00:24:03.619Z,15.30
2018-09-15T00:26:31.251Z,15.20
2018-09-15T00:28:59.899Z,15.20
2018-09-15T00:31:27.564Z,15.10
2018-09-15T00:33:56.205Z,15.00
2018-09-15T00:36:23.862Z,14.90
2018-09-15T00:38:51.548Z,14.90
2018-09-15T00:41:19.179Z,14.90
2018-09-15T00:43:46.850Z,14.80
2018-09-15T00:46:14.561Z,14.70
2018-09-15T00:48:42.252Z,14.60
2018-09-15T00:51:09.987Z,14.60
2018-09-15T00:53:37.591Z,14.50
2018-09-15T00:56:05.305Z,14.50
2018-09-15T00:58:32.985Z,14.30
2018-09-15T01:01:00.638Z,14.30
2018-09-15T01:03:28.327Z,14.20
2018-09-15T01:05:55.999Z,14.20
2018-09-15T01:08:23.638Z,14.10
2018-09-15T01:10:51.294Z,14.00
2018-09-15T01:13:18.986Z,13.90
2018-09-15T01:15:46.651Z,13.90
2018-09-15T01:18:14.282Z,13.80
2018-09-15T01:20:41.991Z,13.80
2018-09-15T01:23:09.690Z,13.70
2018-09-15T01:25:37.406Z,13.60
2018-09-15T01:28:05.127Z,13.50
2018-09-15T01:30:32.806Z,13.40
2018-09-15T01:33:00.439Z,13.30
2018-09-15T01:35:28.029Z,13.30
2018-09-15T01:37:55.695Z,13.10
2018-09-15T01:40:23.363Z,13.10
2018-09-15T01:42:50.999Z,13.00
2018-09-15T01:45:18.703Z,13.00
2018-09-15T01:47:46.400Z,13.00
2018-09-15T01:50:14.050Z,13.00
2018-09-15T01:52:41.719Z,13.00
2018-09-15T01:55:09.423Z,13.00
2018-09-15T01:57:37.181Z,13.00
2018-09-15T02:00:04.838Z,12.90
2018-09-15T02:02:32.572Z,13.00
2018-09-15T02:05:00.202Z,13.00
2018-09-15T02:07:27.889Z,12.90
2018-09-15T02:09:55.599Z,12.90
2018-09-15T02:12:23.815Z,12.90
2018-09-15T02:14:51.482Z,12.90
2018-09-15T02:17:19.122Z,12.80
2018-09-15T02:19:46.794Z,12.80
2018-09-15T02:22:14.458Z,12.80
2018-09-15T02:24:42.207Z,12.80
2018-09-15T02:27:09.914Z,12.90
2018-09-15T02:29:37.599Z,13.00
2018-09-15T02:32:05.328Z,12.90
2018-09-15T02:34:33.022Z,12.90
2018-09-15T02:37:00.733Z,12.90
2018-09-15T02:39:28.419Z,12.90
2018-09-15T02:41:56.150Z,12.90
2018-09-15T02:44:23.805Z,12.90
2018-09-15T02:46:51.486Z,12.90
2018-09-15T02:49:19.154Z,12.90
2018-09-15T02:51:47.007Z,12.90
2018-09-15T02:54:14.730Z,12.80
2018-09-15T02:56:42.419Z,12.80
2018-09-15T02:59:10.162Z,12.80
2018-09-15T03:01:37.810Z,12.80
2018-09-15T03:04:05.454Z,12.70
2018-09-15T03:06:36.270Z,12.80
2018-09-15T03:09:07.158Z,12.70
2018-09-15T03:11:34.878Z,12.80
2018-09-15T03:14:02.539Z,12.70
2018-09-15T03:16:30.294Z,12.70
2018-09-15T03:18:57.928Z,12.70
2018-09-15T03:21:25.586Z,12.70
2018-09-15T03:23:53.318Z,12.60
2018-09-15T03:26:20.967Z,12.60
2018-09-15T03:28:48.732Z,12.60
2018-09-15T03:31:16.439Z,12.60
2018-09-15T03:33:47.143Z,12.60
2018-09-15T03:36:14.810Z,12.50
2018-09-15T03:38:42.539Z,12.50
2018-09-15T03:41:10.226Z,12.50
2018-09-15T03:43:37.923Z,12.50
2018-09-15T03:46:05.606Z,12.40
2018-09-15T03:48:33.319Z,12.40
2018-09-15T03:51:01.003Z,12.30
2018-09-15T03:53:28.680Z,12.30
2018-09-15T03:55:56.425Z,12.10
2018-09-15T03:58:24.099Z,12.00
2018-09-15T04:00:52.798Z,11.90
2018-09-15T04:03:20.935Z,11.80
2018-09-15T04:05:48.605Z,11.70
2018-09-15T04:08:16.294Z,11.60
2018-09-15T04:10:44.231Z,11.60
2018-09-15T04:13:11.903Z,11.60
2018-09-15T04:15:39.654Z,11.50
2018-09-15T04:18:07.410Z,11.40
2018-09-15T04:20:35.087Z,11.40
2018-09-15T04:23:03.716Z,11.40
2018-09-15T04:25:31.330Z,11.30
2018-09-15T04:27:58.918Z,11.30
2018-09-15T04:30:26.630Z,11.30
2018-09-15T04:32:54.291Z,11.30
2018-09-15T04:35:21.888Z,11.30
2018-09-15T04:37:49.627Z,11.20
2018-09-15T04:40:17.302Z,11.00
2018-09-15T04:42:44.930Z,10.90
2018-09-15T04:45:13.658Z,10.90
2018-09-15T04:47:41.363Z,10.70
2018-09-15T04:50:09.006Z,10.80
2018-09-15T04:52:36.682Z,10.70
2018-09-15T04:55:04.403Z,10.80
2018-09-15T04:57:32.087Z,10.80
2018-09-15T04:59:59.763Z,10.80
2018-09-15T05:02:27.526Z,10.80
2018-09-15T05:04:55.236Z,10.80
2018-09-15T05:07:22.898Z,10.80
2018-09-15T05:09:50.537Z,10.90
2018-09-15T05:12:18.333Z,10.80
2018-09-15T05:14:45.966Z,10.80
2018-09-15T05:17:13.638Z,10.80
2018-09-15T05:19:41.263Z,10.80
2018-09-15T05:22:08.923Z,10.70
2018-09-15T05:24:36.635Z,10.70
2018-09-15T05:27:04.351Z,10.80
2018-09-15T05:29:32.032Z,10.80
2018-09-15T05:31:59.826Z,10.80
2018-09-15T05:34:27.414Z,10.90
2018-09-15T05:36:55.030Z,10.90
2018-09-15T05:39:22.614Z,10.90
2018-09-15T05:41:51.307Z,10.90
2018-09-15T05:44:18.943Z,10.90
2018-09-15T05:46:46.612Z,11.00
2018-09-15T05:49:14.252Z,11.00
2018-09-15T05:51:41.943Z,11.10
2018-09-15T05:54:09.570Z,11.30
2018-09-15T05:56:37.303Z,11.30
2018-09-15T05:59:05.395Z,11.50
2018-09-15T06:01:33.118Z,11.70
2018-09-15T06:04:00.812Z,11.90
2018-09-15T06:06:28.558Z,12.00
2018-09-15T06:08:59.651Z,12.10
2018-09-15T06:11:27.325Z,12.10
2018-09-15T06:13:55.032Z,12.30
2018-09-15T06:16:22.715Z,12.50
2018-09-15T06:18:50.331Z,12.50
2018-09-15T06:21:18.022Z,12.60
2018-09-15T06:23:45.639Z,12.60
2018-09-15T06:26:13.803Z,12.70
2018-09-15T06:28:41.863Z,12.80
2018-09-15T06:31:09.574Z,12.90
2018-09-15T06:33:37.205Z,12.90
2018-09-15T06:36:04.992Z,12.90
2018-09-15T06:38:32.722Z,13.00
2018-09-15T06:41:00.338Z,13.00
2018-09-15T06:43:28.006Z,13.10
2018-09-15T06:48:03.684Z,13.10
2018-09-15T06:50:31.326Z,13.30
2018-09-15T06:52:59.010Z,13.40
2018-09-15T06:55:26.771Z,13.50
2018-09-15T06:57:54.442Z,13.60
2018-09-15T07:00:22.094Z,13.60
2018-09-15T07:02:49.742Z,13.70
2018-09-15T07:05:17.386Z,13.70
2018-09-15T07:07:46.027Z,13.80
2018-09-15T07:10:13.626Z,13.90
2018-09-15T07:12:41.299Z,14.00
2018-09-15T07:15:08.947Z,14.10
2018-09-15T07:17:36.526Z,14.20
2018-09-15T07:20:04.576Z,14.30
2018-09-15T07:22:32.219Z,14.50
2018-09-15T07:24:59.930Z,14.60
2018-09-15T07:27:27.622Z,14.70
2018-09-15T07:29:55.277Z,14.80
2018-09-15T07:32:22.953Z,15.00
2018-09-15T07:34:50.735Z,15.20
2018-09-15T07:37:18.306Z,15.30
2018-09-15T07:39:46.031Z,15.30
2018-09-15T07:42:13.702Z,15.40
2018-09-15T07:44:41.366Z,15.40
2018-09-15T07:47:09.026Z,15.50
2018-09-15T07:49:36.678Z,15.50
2018-09-15T07:52:04.337Z,15.50
2018-09-15T07:54:31.982Z,15.50
2018-09-15T07:56:59.634Z,15.60
2018-09-15T07:59:27.415Z,15.70
2018-09-15T08:01:55.174Z,15.70
2018-09-15T08:04:22.794Z,15.60
2018-09-15T08:06:50.444Z,15.70
2018-09-15T08:09:18.080Z,15.80
2018-09-15T08:11:49.355Z,15.80
2018-09-15T08:14:16.910Z,15.80
2018-09-15T08:16:44.603Z,15.90
2018-09-15T08:19:12.376Z,16.00
2018-09-15T08:21:39.976Z,16.10
2018-09-15T08:24:07.643Z,16.10
2018-09-15T08:26:35.500Z,16.20
2018-09-15T08:29:02.938Z,16.20
2018-09-15T08:31:30.547Z,16.40
2018-09-15T08:33:58.174Z,16.50
2018-09-15T08:36:25.800Z,16.60
2018-09-15T08:38:53.463Z,16.60
2018-09-15T08:41:21.268Z,16.60
2018-09-15T08:43:48.870Z,16.70
2018-09-15T08:46:16.522Z,16.70
2018-09-15T08:48:44.203Z,16.60
2018-09-15T08:51:11.832Z,16.70
2018-09-15T08:53:39.482Z,17.00
2018-09-15T08:56:07.151Z,17.20
2018-09-15T08:58:34.855Z,17.30
2018-09-15T09:01:02.510Z,17.30
2018-09-15T09:03:30.242Z,17.20
2018-09-15T09:05:57.967Z,17.20
2018-09-15T09:08:25.608Z,17.20
2018-09-15T09:10:53.326Z,17.30
2018-09-15T09:13:20.987Z,17.20
2018-09-15T09:15:48.929Z,17.40
2018-09-15T09:18:16.595Z,17.50
2018-09-15T09:20:44.261Z,17.40
2018-09-15T09:23:11.958Z,17.50
2018-09-15T09:25:39.611Z,17.40
2018-09-15T09:28:10.570Z,17.50
2018-09-15T09:30:38.180Z,17.70
2018-09-15T09:33:05.878Z,17.70
2018-09-15T09:35:33.489Z,17.60
2018-09-15T09:38:01.162Z,17.70
2018-09-15T09:40:28.854Z,17.70
2018-09-15T09:42:56.566Z,17.80
2018-09-15T09:45:24.217Z,18.00
2018-09-15T09:47:51.850Z,18.00
2018-09-15T09:50:19.492Z,18.10
2018-09-15T09:52:47.114Z,18.30
2018-09-15T09:55:14.761Z,18.30
2018-09-15T09:57:42.474Z,18.50
2018-09-15T10:00:19.342Z,18.40
2018-09-15T10:02:47.066Z,18.40
2018-09-15T10:05:14.722Z,18.50
2018-09-15T10:07:42.415Z,18.60
2018-09-15T10:10:10.114Z,18.60
2018-09-15T10:12:37.731Z,18.60
2018-09-15T10:15:05.444Z,18.60
2018-09-15T10:17:33.118Z,18.80
2018-09-15T10:20:00.776Z,19.10
2018-09-15T10:22:28.502Z,19.10
2018-09-15T10:24:56.094Z,19.00
2018-09-15T10:27:26.835Z,19.00
2018-09-15T10:29:54.512Z,19.00
2018-09-15T10:32:22.194Z,19.00
2018-09-15T10:34:49.789Z,18.90
2018-09-15T10:37:17.406Z,18.90
2018-09-15T10:39:45.037Z,18.90
2018-09-15T10:42:12.754Z,19.10
2018-09-15T10:44:40.368Z,19.00
2018-09-15T10:47:07.988Z,19.10
2018-09-15T10:49:35.721Z,19.10
2018-09-15T10:52:03.419Z,19.10
2018-09-15T10:54:31.110Z,19.10
2018-09-15T10:56:58.767Z,19.10
2018-09-15T10:59:26.454Z,19.20
2018-09-15T11:01:54.239Z,19.10
2018-09-15T11:04:21.910Z,19.00
2018-09-15T11:06:49.770Z,19.00
2018-09-15T11:09:17.405Z,19.00
2018-09-15T11:11:45.250Z,19.10
2018-09-15T11:14:12.947Z,19.20
2018-09-15T11:16:40.652Z,19.20
2018-09-15T11:19:08.285Z,19.20
2018-09-15T11:21:35.889Z,19.20
2018-09-15T11:24:04.649Z,19.10
2018-09-15T11:26:32.287Z,19.10
2018-09-15T11:28:59.878Z,19.10
2018-09-15T11:31:27.552Z,19.00
2018-09-15T11:33:55.539Z,19.00
2018-09-15T11:36:23.219Z,19.00
2018-09-15T11:38:50.850Z,19.00
2018-09-15T11:41:18.503Z,19.10
2018-09-15T11:43:46.131Z,19.20
2018-09-15T11:46:13.760Z,19.10
2018-09-15T11:48:41.457Z,19.10
2018-09-15T11:51:09.077Z,19.10
2018-09-15T11:53:36.779Z,19.10
2018-09-15T11:56:04.458Z,19.10
2018-09-15T11:58:32.155Z,19.10
2018-09-15T12:01:02.610Z,19.00
2018-09-15T12:03:30.254Z,19.00
2018-09-15T12:05:57.990Z,19.20
2018-09-15T12:08:25.650Z,19.30
2018-09-15T12:10:53.346Z,19.30
2018-09-15T12:13:21.002Z,19.50
2018-09-15T12:15:49.259Z,19.60
2018-09-15T12:18:17.064Z,19.60
2018-09-15T12:20:44.867Z,19.70
2018-09-15T12:23:12.762Z,19.70
2018-09-15T12:25:40.776Z,19.70
2018-09-15T12:28:08.550Z,19.70
2018-09-15T12:30:37.161Z,19.50
2018-09-15T12:33:04.856Z,19.50
2018-09-15T12:35:32.586Z,19.50
2018-09-15T12:38:00.224Z,19.60
2018-09-15T12:40:27.953Z,19.60
2018-09-15T12:42:55.590Z,19.70
2018-09-15T12:45:23.295Z,19.70
2018-09-15T12:47:50.937Z,19.80
2018-09-15T12:50:18.586Z,19.80
2018-09-15T12:52:46.226Z,19.90
2018-09-15T12:55:13.909Z,19.90
2018-09-15T12:57:41.584Z,19.90
2018-09-15T13:00:09.181Z,20.00
2018-09-15T13:02:36.879Z,20.10
2018-09-15T13:05:04.571Z,20.30
2018-09-15T13:07:32.231Z,20.30
2018-09-15T13:09:59.915Z,20.40
2018-09-15T13:12:27.658Z,20.40
2018-09-15T13:14:55.318Z,20.50
2018-09-15T13:17:22.975Z,20.60
2018-09-15T13:19:50.651Z,20.60
2018-09-15T13:22:18.294Z,20.50
2018-09-15T13:24:46.961Z,20.30
2018-09-15T13:27:18.066Z,20.30
2018-09-15T13:29:45.917Z,20.20
2018-09-15T13:32:13.499Z,20.30
2018-09-15T13:34:41.212Z,20.20
2018-09-15T13:37:08.869Z,20.30
2018-09-15T13:39:36.477Z,20.20
2018-09-15T13:42:04.143Z,20.10
2018-09-15T13:44:31.826Z,20.20
2018-09-15T13:46:59.438Z,20.40
2018-09-15T13:49:27.083Z,20.40
2018-09-15T13:51:55.663Z,20.40
2018-09-15T13:54:23.323Z,20.40
2018-09-15T13:56:50.946Z,20.50
2018-09-15T13:59:19.170Z,20.70
2018-09-15T14:01:47.815Z,20.80
2018-09-15T14:04:15.442Z,20.70
2018-09-15T14:06:43.087Z,20.80
2018-09-15T14:09:11.727Z,20.90
2018-09-15T14:11:39.369Z,20.90
2018-09-15T14:14:07.063Z,21.20
2018-09-15T14:16:34.814Z,21.20
2018-09-15T14:19:02.678Z,21.50
2018-09-15T14:21:30.414Z,21.60
2018-09-15T14:23:58.006Z,21.40
2018-09-15T14:26:25.673Z,21.60
2018-09-15T14:28:53.414Z,21.70
2018-09-15T14:31:21.078Z,21.60
2018-09-15T14:33:48.747Z,21.50
2018-09-15T14:36:16.442Z,21.50
2018-09-15T14:38:44.082Z,21.50
2018-09-15T14:41:11.702Z,21.50
2018-09-15T14:43:39.339Z,21.60
2018-09-15T14:46:06.990Z,21.60
2018-09-15T14:48:34.698Z,21.90
2018-09-15T14:51:02.347Z,21.70
2018-09-15T14:53:30.090Z,21.80
2018-09-15T14:55:57.738Z,21.70
2018-09-15T14:58:25.470Z,21.50
2018-09-15T15:00:53.070Z,21.20
2018-09-15T15:03:20.751Z,21.10
2018-09-15T15:05:48.407Z,21.00
2018-09-15T15:08:16.090Z,21.10
2018-09-15T15:10:43.774Z,21.00
2018-09-15T15:13:11.395Z,20.90
2018-09-15T15:15:39.068Z,20.70
2018-09-15T15:18:06.698Z,20.80
2018-09-15T15:20:34.331Z,20.60
2018-09-15T15:23:02.103Z,20.50
2018-09-15T15:25:29.811Z,20.50
2018-09-15T15:27:57.493Z,20.50
2018-09-15T15:30:25.203Z,20.50
2018-09-15T15:32:52.927Z,20.40
2018-09-15T15:35:20.695Z,20.30
2018-09-15T15:37:48.370Z,20.20
2018-09-15T15:40:15.966Z,20.10
2018-09-15T15:42:43.614Z,20.10
2018-09-15T15:45:11.344Z,20.10
2018-09-15T15:47:39.103Z,20.10
2018-09-15T15:50:06.820Z,20.10
2018-09-15T15:52:34.460Z,20.00
2018-09-15T15:55:02.129Z,19.90
2018-09-15T15:57:29.790Z,20.00
2018-09-15T15:59:57.338Z,20.00
2018-09-15T16:02:24.974Z,20.00
2018-09-15T16:04:52.642Z,19.90
2018-09-15T16:07:20.312Z,19.90
2018-09-15T16:09:48.020Z,19.90
2018-09-15T16:12:15.638Z,19.90
2018-09-15T16:14:43.269Z,19.90
2018-09-15T16:17:10.971Z,19.80
2018-09-15T16:19:38.634Z,19.80
2018-09-15T16:22:06.354Z,19.80
2018-09-15T16:24:34.031Z,19.70
2018-09-15T16:27:01.653Z,19.70
2018-09-15T16:29:29.323Z,19.70
2018-09-15T16:31:56.927Z,19.60
2018-09-15T16:34:24.554Z,19.60
2018-09-15T16:36:52.183Z,19.60
2018-09-15T16:39:19.800Z,19.40
2018-09-15T16:41:47.459Z,19.30
2018-09-15T16:44:15.146Z,19.30
2018-09-15T16:46:42.794Z,19.20
2018-09-15T16:49:10.487Z,19.10
2018-09-15T16:51:38.178Z,19.10
2018-09-15T16:54:06.623Z,19.00
2018-09-15T16:56:34.850Z,19.10
2018-09-15T16:59:02.522Z,19.00
2018-09-15T17:01:30.146Z,18.90
2018-09-15T17:03:57.795Z,18.90
2018-09-15T17:06:25.479Z,18.80
2018-09-15T17:08:53.110Z,18.80
2018-09-15T17:11:20.810Z,18.70
2018-09-15T17:13:48.439Z,18.70
2018-09-15T17:16:16.086Z,18.70
2018-09-15T17:18:43.827Z,18.70
2018-09-15T17:21:11.443Z,18.60
2018-09-15T17:23:39.054Z,18.60
2018-09-15T17:26:06.726Z,18.60
2018-09-15T17:28:34.418Z,18.50
2018-09-15T17:31:02.031Z,18.50
2018-09-15T17:33:29.682Z,18.40
2018-09-15T17:35:57.327Z,18.40
2018-09-15T17:38:25.046Z,18.30
2018-09-15T17:40:52.841Z,18.20
2018-09-15T17:43:20.535Z,18.20
2018-09-15T17:45:48.260Z,18.10
2018-09-15T17:48:15.990Z,18.00
2018-09-15T17:50:43.679Z,17.90
2018-09-15T17:53:11.335Z,17.80
2018-09-15T17:55:39.006Z,17.70
2018-09-15T17:58:06.755Z,17.70
2018-09-15T18:00:34.366Z,17.60
2018-09-15T18:03:02.979Z,17.50
2018-09-15T18:05:30.729Z,17.40
2018-09-15T18:07:58.425Z,17.40
2018-09-15T18:10:26.159Z,17.30
2018-09-15T18:12:54.139Z,17.20
2018-09-15T18:15:21.866Z,17.20
2018-09-15T18:17:49.551Z,17.20
2018-09-15T18:20:17.222Z,17.10
2018-09-15T18:22:44.850Z,17.10
2018-09-15T18:25:12.519Z,17.00
2018-09-15T18:27:40.170Z,17.00
2018-09-15T18:30:07.934Z,16.80
2018-09-15T18:32:35.573Z,16.80
2018-09-15T18:35:03.510Z,16.80
2018-09-15T18:37:31.263Z,16.70
2018-09-15T18:39:59.011Z,16.70
2018-09-15T18:42:30.179Z,16.70
2018-09-15T18:44:57.782Z,16.60
2018-09-15T18:47:25.507Z,16.50
2018-09-15T18:49:53.187Z,16.50
2018-09-15T18:52:20.785Z,16.40
2018-09-15T18:54:48.526Z,16.30
2018-09-15T18:57:16.732Z,16.20
2018-09-15T18:59:44.352Z,16.20
2018-09-15T19:02:12.057Z,16.00
2018-09-15T19:04:39.688Z,16.00
2018-09-15T19:07:07.464Z,15.90
2018-09-15T19:09:35.207Z,15.80
2018-09-15T19:12:02.870Z,15.70
2018-09-15T19:14:30.519Z,15.60
2018-09-15T19:16:58.309Z,15.60
2018-09-15T19:19:29.098Z,15.50
2018-09-15T19:21:56.799Z,15.40
2018-09-15T19:24:25.914Z,15.30
2018-09-15T19:26:57.110Z,15.40
2018-09-15T19:29:25.014Z,15.30
2018-09-15T19:31:53.795Z,15.30
2018-09-15T19:34:25.286Z,15.30
2018-09-15T19:36:53.011Z,15.30
2018-09-15T19:39:21.364Z,15.40
2018-09-15T19:41:49.189Z,15.30
2018-09-15T19:44:17.092Z,15.20
2018-09-15T19:46:44.847Z,15.10
2018-09-15T19:49:12.814Z,15.20
2018-09-15T19:51:40.812Z,15.10
2018-09-15T19:54:09.627Z,15.10
2018-09-15T19:56:37.459Z,15.10
2018-09-15T19:59:05.261Z,15.10
2018-09-15T20:01:32.898Z,15.00
2018-09-15T20:04:00.542Z,15.00
2018-09-15T20:06:28.202Z,15.00
2018-09-15T20:08:59.315Z,15.00
2018-09-15T20:11:27.060Z,15.00
2018-09-15T20:13:54.790Z,15.00
2018-09-15T20:16:21.315Z,14.90
2018-09-15T20:18:47.843Z,14.90
2018-09-15T20:21:14.427Z,14.90
2018-09-15T20:23:42.066Z,14.80
2018-09-15T20:26:09.656Z,14.80
2018-09-15T20:28:37.333Z,14.70
2018-09-15T20:31:05.506Z,14.70
2018-09-15T20:33:33.238Z,14.70
2018-09-15T20:36:00.883Z,14.70
2018-09-15T20:38:28.572Z,14.60
2018-09-15T20:40:56.239Z,14.60
2018-09-15T20:43:24.306Z,14.50
2018-09-15T20:45:51.918Z,14.50
2018-09-15T20:48:19.577Z,14.50
2018-09-15T20:51:50.676Z,14.50
2018-09-15T20:54:18.443Z,14.50
2018-09-15T20:56:46.143Z,14.50
2018-09-15T20:59:13.874Z,14.50
2018-09-15T21:01:41.610Z,14.40
2018-09-15T21:04:09.294Z,14.40
2018-09-15T21:06:36.938Z,14.40
2018-09-15T21:09:07.562Z,14.40
2018-09-15T21:11:35.274Z,14.30
2018-09-15T21:14:02.910Z,14.30
2018-09-15T21:16:30.522Z,14.20
2018-09-15T21:18:58.274Z,14.20
2018-09-15T21:21:25.945Z,14.20
2018-09-15T21:23:53.593Z,14.20
2018-09-15T21:26:24.823Z,14.20
2018-09-15T21:28:52.494Z,14.10
2018-09-15T21:31:20.110Z,14.00
2018-09-15T21:33:47.726Z,14.00
2018-09-15T21:38:23.634Z,13.90
2018-09-15T21:40:51.284Z,13.80
2018-09-15T21:43:18.963Z,13.70
2018-09-15T21:45:46.619Z,13.80
2018-09-15T21:48:14.254Z,13.70
2018-09-15T21:50:41.920Z,13.70
2018-09-15T21:53:09.566Z,13.70
2018-09-15T21:55:37.208Z,13.60
2018-09-15T21:58:05.066Z,13.60
2018-09-15T22:00:32.810Z,13.60
2018-09-15T22:03:00.439Z,13.60
2018-09-15T22:05:28.243Z,13.50
2018-09-15T22:07:55.935Z,13.50
2018-09-15T22:10:29.322Z,13.50
2018-09-15T22:12:57.022Z,13.50
2018-09-15T22:15:26.618Z,13.50
2018-09-15T22:17:56.222Z,13.40
2018-09-15T22:20:23.927Z,13.40
2018-09-15T22:22:51.607Z,13.40
2018-09-15T22:25:19.391Z,13.30
2018-09-15T22:27:47.623Z,13.30
2018-09-15T22:30:15.230Z,13.30
2018-09-15T22:32:42.874Z,13.30
2018-09-15T22:35:10.544Z,13.30
2018-09-15T22:37:38.119Z,13.30
2018-09-15T22:40:05.834Z,13.20
2018-09-15T22:42:33.542Z,13.20
2018-09-15T22:45:01.156Z,13.20
2018-09-15T22:47:28.870Z,13.10
2018-09-15T22:49:56.482Z,13.10
2018-09-15T22:52:24.229Z,13.00
2018-09-15T22:54:51.835Z,12.90
2018-09-15T22:57:19.607Z,12.90
2018-09-15T22:59:47.243Z,12.80
2018-09-15T23:02:14.883Z,12.80
2018-09-15T23:04:45.834Z,12.70
2018-09-15T23:07:13.464Z,12.70
2018-09-15T23:09:44.940Z,12.60
2018-09-15T23:12:12.690Z,12.50
2018-09-15T23:14:41.142Z,12.40
2018-09-15T23:17:08.793Z,12.30
2018-09-15T23:19:36.507Z,12.20
2018-09-15T23:22:04.191Z,12.20
2018-09-15T23:24:31.910Z,12.20
2018-09-15T23:26:59.620Z,12.10
2018-09-15T23:29:27.243Z,12.00
2018-09-15T23:31:54.906Z,11.90
2018-09-15T23:34:22.591Z,11.80
2018-09-15T23:36:50.176Z,11.90
2018-09-15T23:39:17.906Z,11.80
2018-09-15T23:41:45.528Z,11.90
2018-09-15T23:44:13.196Z,11.90
2018-09-15T23:46:40.866Z,11.80
2018-09-15T23:49:08.515Z,11.70
2018-09-15T23:51:36.160Z,11.50
2018-09-15T23:54:03.870Z,11.50
2018-09-15T23:56:31.461Z,11.50
2018-09-15T23:58:59.121Z,11.60
